Time;durP1;ratioP1;P1;durP2;ratioP2;P2;SDS_P1;SDS_P2;PMS_P1;PMS_P2;Temp;Humidity;BMP_temperature;BMP_pressure;BME280_temperature;BME280_humidity;BME280_pressure;Samples;Min_cycle;Max_cycle;Signal;HPM_P1;HPM_P2
2020/12/09 00:01:28;;;;;;;;;;;;;;;;;;5049784;28;19909;-71
2020/12/09 00:03:54;;;;;;;;;;;;;;;;;;5051257;28;19940;-67
2020/12/09 00:06:20;;;;;;;;;;;;;;;;;;5053195;28;20011;-69
2020/12/09 00:08:46;;;;;;;;;;;;;;;;;;5049369;28;20012;-69
2020/12/09 00:11:12;;;;;;;;;;;;;;;;;;5053529;28;20307;-68
2020/12/09 00:13:38;;;;;;;;;;;;;;;;;;5054686;28;19915;-68
2020/12/09 00:16:04;;;;;;;;;;;;;;;;;;5048062;28;19913;-70
2020/12/09 00:18:30;;;;;;;;;;;;;;;;;;5054054;28;20453;-70
2020/12/09 00:20:56;;;;;;;;;;;;;;;;;;5041825;28;20023;-68
2020/12/09 00:23:22;;;;;;;;;;;;;;;;;;5034092;28;20012;-68
2020/12/09 00:25:48;;;;;;;;;;;;;;;;;;5034662;28;20000;-68
2020/12/09 00:28:14;;;;;;;;;;;;;;;;;;5034181;28;20020;-71
2020/12/09 00:30:40;;;;;;;;;;;;;;;;;;5034537;28;19963;-68
2020/12/09 00:33:06;;;;;;;;;;;;;;;;;;5034302;28;20004;-68
2020/12/09 00:35:31;;;;;;;;;;;;;;;;;;5034461;28;19913;-68
2020/12/09 00:37:57;;;;;;;;;;;;;;;;;;5034280;28;19947;-68
2020/12/09 00:40:23;;;;;;;;;;;;;;;;;;5036632;28;19956;-68
2020/12/09 00:42:49;;;;;;;;;;;;;;;;;;5052655;28;19909;-68
2020/12/09 00:45:15;;;;;;;;;;;;;;;;;;5054080;28;20023;-68
2020/12/09 00:47:41;;;;;;;;;;;;;;;;;;5053532;28;20452;-70
2020/12/09 00:52:39;;;;;;;;;;;;;;;;;;5054109;28;19915;-71
2020/12/09 00:55:05;;;;;;;;;;;;;;;;;;5053915;28;20515;-68
2020/12/09 00:57:31;;;;;;;;;;;;;;;;;;5053195;28;20000;-68
2020/12/09 00:59:57;;;;;;;;;;;;;;;;;;5053827;28;19955;-68
2020/12/09 01:02:23;;;;;;;;;;;;;;;;;;5053523;28;19956;-68
2020/12/09 01:04:49;;;;;;;;;;;;;;;;;;5053724;28;20007;-69
2020/12/09 01:07:15;;;;;;;;;;;;;;;;;;5051946;28;19913;-68
2020/12/09 01:09:41;;;;;;;;;;;;;;;;;;5047332;28;19948;-68
2020/12/09 01:12:07;;;;;;;;;;;;;;;;;;5052458;28;19947;-68
2020/12/09 01:14:33;;;;;;;;;;;;;;;;;;5053781;28;20016;-68
2020/12/09 01:17:00;;;;;;;;;;;;;;;;;;5052042;28;19995;-68
2020/12/09 01:19:26;;;;;;;;;;;;;;;;;;5053236;28;19959;-68
2020/12/09 01:21:51;;;;;;;;;;;;;;;;;;5053488;28;20333;-68
2020/12/09 01:24:17;;;;;;;;;;;;;;;;;;5053194;28;20007;-68
2020/12/09 01:26:43;;;;;;;;;;;;;;;;;;5053366;28;19915;-69
2020/12/09 01:29:09;;;;;;;;;;;;;;;;;;5053263;28;20351;-71
2020/12/09 01:31:35;;;;;;;;;;;;;;;;;;5053073;28;19991;-68
2020/12/09 01:34:01;;;;;;;;;;;;;;;;;;5053106;28;19951;-68
2020/12/09 01:36:27;;;;;;;;;;;;;;;;;;5053213;28;19959;-68
2020/12/09 01:38:53;;;;;;;;;;;;;;;;;;5045796;28;20373;-68
2020/12/09 01:41:19;;;;;;;;;;;;;;;;;;5048314;28;20016;-68
2020/12/09 01:43:45;;;;;;;;;;;;;;;;;;5053074;28;19959;-69
2020/12/09 01:46:10;;;;;;;;;;;;;;;;;;5053089;28;19916;-71
2020/12/09 01:48:36;;;;;;;;;;;;;;;;;;5052675;28;19909;-72
2020/12/09 01:51:02;;;;;;;;;;;;;;;;;;5052941;28;19916;-70
2020/12/09 01:53:28;;;;;;;;;;;;;;;;;;5052827;28;20410;-69
2020/12/09 01:55:54;;;;;;;;;;;;;;;;;;5051243;28;19952;-68
2020/12/09 01:58:20;;;;;;;;;;;;;;;;;;5052349;28;19916;-68
2020/12/09 02:00:46;;;;;;;;;;;;;;;;;;5051222;28;20340;-68
2020/12/09 02:03:12;;;;;;;;;;;;;;;;;;5052602;28;19947;-69
2020/12/09 02:05:38;;;;;;;;;;;;;;;;;;5052558;28;19908;-69
2020/12/09 02:08:04;;;;;;;;;;;;;;;;;;5052156;28;19948;-71
2020/12/09 02:10:29;;;;;;;;;;;;;;;;;;5048915;28;19959;-69
2020/12/09 02:12:55;;;;;;;;;;;;;;;;;;5052273;28;20426;-68
2020/12/09 02:15:21;;;;;;;;;;;;;;;;;;5047688;28;19971;-69
2020/12/09 02:17:47;;;;;;;;;;;;;;;;;;5046760;28;20284;-68
2020/12/09 02:20:13;;;;;;;;;;;;;;;;;;5043060;28;20000;-69
2020/12/09 02:22:39;;;;;;;;;;;;;;;;;;5032416;28;19909;-68
2020/12/09 02:25:05;;;;;;;;;;;;;;;;;;5032474;28;20419;-69
2020/12/09 02:27:31;;;;;;;;;;;;;;;;;;5031992;28;19941;-70
2020/12/09 02:29:57;;;;;;;;;;;;;;;;;;5031677;28;19920;-69
2020/12/09 02:32:23;;;;;;;;;;;;;;;;;;5031993;28;19909;-69
2020/12/09 02:34:49;;;;;;;;;;;;;;;;;;5032059;28;19972;-69
2020/12/09 02:37:15;;;;;;;;;;;;;;;;;;5032111;28;20000;-69
2020/12/09 02:39:40;;;;;;;;;;;;;;;;;;5031208;28;20011;-69
2020/12/09 02:42:06;;;;;;;;;;;;;;;;;;5049037;28;19909;-70
2020/12/09 02:44:32;;;;;;;;;;;;;;;;;;5051580;28;19916;-71
2020/12/09 02:46:58;;;;;;;;;;;;;;;;;;5051769;28;19964;-70
2020/12/09 02:49:24;;;;;;;;;;;;;;;;;;5051499;28;20011;-71
2020/12/09 02:51:50;;;;;;;;;;;;;;;;;;5052079;28;19912;-68
2020/12/09 02:54:16;;;;;;;;;;;;;;;;;;5051937;28;19919;-68
2020/12/09 02:56:42;;;;;;;;;;;;;;;;;;5050222;28;19960;-68
2020/12/09 02:59:08;;;;;;;;;;;;;;;;;;5050951;28;20003;-68
2020/12/09 03:01:34;;;;;;;;;;;;;;;;;;5051731;28;19996;-69
2020/12/09 03:04:00;;;;;;;;;;;;;;;;;;5051695;28;19909;-68
2020/12/09 03:06:25;;;;;;;;;;;;;;;;;;5045269;28;19913;-69
2020/12/09 03:08:51;;;;;;;;;;;;;;;;;;5052502;28;19932;-71
2020/12/09 03:11:17;;;;;;;;;;;;;;;;;;5060960;28;19924;-71
2020/12/09 03:13:43;;;;;;;;;;;;;;;;;;5054093;28;20281;-69
2020/12/09 03:16:10;;;;;;;;;;;;;;;;;;5061430;28;20356;-68
2020/12/09 03:18:36;;;;;;;;;;;;;;;;;;5060472;28;20297;-69
2020/12/09 03:21:06;;;;;;;;;;;;;;;;;;5061055;28;20015;-69
2020/12/09 03:23:32;;;;;;;;;;;;;;;;;;5060289;28;19964;-71
2020/12/09 03:25:58;;;;;;;;;;;;;;;;;;5060793;28;19913;-70
2020/12/09 03:28:24;;;;;;;;;;;;;;;;;;5060343;28;19913;-69
2020/12/09 03:30:50;;;;;;;;;;;;;;;;;;5059606;28;19932;-70
2020/12/09 03:33:16;;;;;;;;;;;;;;;;;;5059388;28;19912;-70
2020/12/09 03:35:41;;;;;;;;;;;;;;;;;;5055980;28;20372;-69
2020/12/09 03:38:09;;;;;;;;;;;;;;;;;;5050535;28;19910;-70
2020/12/09 03:40:35;;;;;;;;;;;;;;;;;;5060012;28;19913;-72
2020/12/09 03:43:01;;;;;;;;;;;;;;;;;;5063897;28;19913;-69
2020/12/09 03:45:27;;;;;;;;;;;;;;;;;;5063074;28;19970;-69
2020/12/09 03:47:53;;;;;;;;;;;;;;;;;;5063096;28;19908;-70
2020/12/09 03:50:19;;;;;;;;;;;;;;;;;;5062915;28;19912;-69
2020/12/09 03:52:45;;;;;;;;;;;;;;;;;;5062728;28;19916;-69
2020/12/09 03:55:11;;;;;;;;;;;;;;;;;;5061593;28;20321;-71
2020/12/09 03:57:36;;;;;;;;;;;;;;;;;;5060449;28;19916;-70
2020/12/09 04:00:02;;;;;;;;;;;;;;;;;;5063149;28;19904;-72
2020/12/09 04:02:28;;;;;;;;;;;;;;;;;;5056660;28;19916;-70
2020/12/09 04:04:54;;;;;;;;;;;;;;;;;;5039213;28;19916;-69
2020/12/09 04:07:20;;;;;;;;;;;;;;;;;;5042658;28;19909;-71
2020/12/09 04:09:46;;;;;;;;;;;;;;;;;;5057066;28;19909;-69
2020/12/09 04:12:12;;;;;;;;;;;;;;;;;;5062716;28;19916;-69
2020/12/09 04:14:38;;;;;;;;;;;;;;;;;;5060204;28;20383;-69
2020/12/09 04:17:04;;;;;;;;;;;;;;;;;;5062774;28;19983;-70
2020/12/09 04:19:29;;;;;;;;;;;;;;;;;;5062037;28;19962;-72
2020/12/09 04:21:55;;;;;;;;;;;;;;;;;;5062750;28;20407;-68
2020/12/09 04:24:21;;;;;;;;;;;;;;;;;;5062906;28;19936;-69
2020/12/09 04:26:47;;;;;;;;;;;;;;;;;;5060990;28;19913;-69
2020/12/09 04:29:13;;;;;;;;;;;;;;;;;;5041583;28;20381;-69
2020/12/09 04:31:39;;;;;;;;;;;;;;;;;;5041537;28;19909;-69
2020/12/09 04:34:05;;;;;;;;;;;;;;;;;;5035397;28;20077;-69
2020/12/09 04:36:31;;;;;;;;;;;;;;;;;;5037017;28;20368;-69
2020/12/09 04:38:57;;;;;;;;;;;;;;;;;;5054346;28;19912;-70
2020/12/09 04:41:23;;;;;;;;;;;;;;;;;;5054722;28;19908;-71
2020/12/09 04:43:49;;;;;;;;;;;;;;;;;;5054530;28;19955;-70
2020/12/09 04:46:15;;;;;;;;;;;;;;;;;;5053229;28;19948;-69
2020/12/09 04:48:41;;;;;;;;;;;;;;;;;;5054132;28;19986;-70
2020/12/09 04:51:07;;;;;;;;;;;;;;;;;;5054288;28;20338;-68
2020/12/09 04:53:33;;;;;;;;;;;;;;;;;;5054302;28;20365;-69
2020/12/09 04:55:58;;;;;;;;;;;;;;;;;;5053996;28;19970;-70
2020/12/09 04:58:24;;;;;;;;;;;;;;;;;;5053523;28;19964;-70
2020/12/09 05:00:50;;;;;;;;;;;;;;;;;;5053216;28;20331;-70
2020/12/09 05:03:16;;;;;;;;;;;;;;;;;;5052475;28;19935;-69
2020/12/09 05:05:42;;;;;;;;;;;;;;;;;;5053545;28;20001;-69
2020/12/09 05:08:08;;;;;;;;;;;;;;;;;;5052901;28;19909;-71
2020/12/09 05:10:40;;;;;;;;;;;;;;;;;;5053965;28;19909;-68
2020/12/09 05:13:06;;;;;;;;;;;;;;;;;;5045901;22;19924;-76
2020/12/09 05:15:32;;;;;;;;;;;;;;;;;;5058106;28;19923;-76
2020/12/09 05:17:58;;;;;;;;;;;;;;;;;;5035832;28;19909;-75
2020/12/09 05:20:24;;;;;;;;;;;;;;;;;;5030850;28;19909;-75
2020/12/09 05:22:50;;;;;;;;;;;;;;;;;;5012671;28;20417;-76
2020/12/09 05:25:15;;;;;;;;;;;;;;;;;;5012535;28;20367;-76
2020/12/09 05:27:41;;;;;;;;;;;;;;;;;;5012348;28;19913;-76
2020/12/09 05:30:07;;;;;;;;;;;;;;;;;;5013499;28;19909;-75
2020/12/09 05:32:33;;;;;;;;;;;;;;;;;;5017436;28;19917;-76
2020/12/09 05:34:59;;;;;;;;;;;;;;;;;;5013639;28;19910;-76
2020/12/09 05:37:25;;;;;;;;;;;;;;;;;;5013279;28;20386;-76
2020/12/09 05:39:51;;;;;;;;;;;;;;;;;;5012703;28;19909;-77
2020/12/09 05:42:17;;;;;;;;;;;;;;;;;;5037499;28;19955;-77
2020/12/09 05:44:43;;;;;;;;;;;;;;;;;;5046169;28;19909;-77
2020/12/09 05:47:09;;;;;;;;;;;;;;;;;;5052572;28;19931;-76
2020/12/09 05:49:39;;;;;;;;;;;;;;;;;;5052921;28;19909;-77
2020/12/09 05:52:05;;;;;;;;;;;;;;;;;;5053393;28;20008;-77
2020/12/09 05:54:31;;;;;;;;;;;;;;;;;;5052116;28;19952;-76
2020/12/09 05:56:57;;;;;;;;;;;;;;;;;;5051774;28;20002;-77
2020/12/09 05:59:23;;;;;;;;;;;;;;;;;;5052052;28;19913;-77
2020/12/09 06:01:49;;;;;;;;;;;;;;;;;;5053041;28;20390;-76
2020/12/09 06:04:14;;;;;;;;;;;;;;;;;;5051032;28;19960;-76
2020/12/09 06:06:40;;;;;;;;;;;;;;;;;;5049363;28;19908;-77
2020/12/09 06:09:06;;;;;;;;;;;;;;;;;;5043057;28;19909;-77
2020/12/09 06:11:32;;;;;;;;;;;;;;;;;;5051238;28;19925;-77
2020/12/09 06:13:58;;;;;;;;;;;;;;;;;;5035388;28;19921;-76
2020/12/09 06:16:24;;;;;;;;;;;;;;;;;;5031201;28;20368;-75
2020/12/09 06:18:50;;;;;;;;;;;;;;;;;;5030108;28;19916;-76
2020/12/09 06:21:16;;;;;;;;;;;;;;;;;;5028570;28;19909;-76
2020/12/09 06:23:42;;;;;;;;;;;;;;;;;;5030870;28;19910;-76
2020/12/09 06:26:08;;;;;;;;;;;;;;;;;;5029353;28;19920;-76
2020/12/09 06:28:34;;;;;;;;;;;;;;;;;;5037492;28;19909;-76
2020/12/09 06:31:00;;;;;;;;;;;;;;;;;;5031607;28;20363;-77
2020/12/09 06:33:26;;;;;;;;;;;;;;;;;;5033121;28;19913;-76
2020/12/09 06:35:52;;;;;;;;;;;;;;;;;;5030129;28;19963;-76
2020/12/09 06:38:18;;;;;;;;;;;;;;;;;;5034103;28;19944;-77
2020/12/09 06:40:44;;;;;;;;;;;;;;;;;;5031193;28;20009;-76
2020/12/09 06:43:11;;;;;;;;;;;;;;;;;;5034655;28;20000;-77
2020/12/09 06:45:37;;;;;;;;;;;;;;;;;;5030923;28;20363;-77
2020/12/09 06:48:03;;;;;;;;;;;;;;;;;;5028716;28;19967;-76
2020/12/09 06:50:29;;;;;;;;;;;;;;;;;;5030043;28;19917;-76
2020/12/09 06:52:55;;;;;;;;;;;;;;;;;;5031370;28;19917;-76
2020/12/09 06:55:21;;;;;;;;;;;;;;;;;;5031197;28;20008;-77
2020/12/09 06:57:47;;;;;;;;;;;;;;;;;;5031387;28;19999;-76
2020/12/09 07:00:15;;;;;;;;;;;;;;;;;;5028496;28;19963;-76
2020/12/09 07:02:41;;;;;;;;;;;;;;;;;;5025635;28;20272;-76
2020/12/09 07:05:07;;;;;;;;;;;;;;;;;;5030676;28;19945;-76
2020/12/09 07:07:35;;;;;;;;;;;;;;;;;;5031235;28;19924;-75
2020/12/09 07:10:01;;;;;;;;;;;;;;;;;;5040511;28;19952;-77
2020/12/09 07:12:27;;;;;;;;;;;;;;;;;;5032512;28;19964;-76
2020/12/09 07:14:56;;;;;;;;;;;;;;;;;;5030889;28;19909;-76
2020/12/09 07:17:22;;;;;;;;;;;;;;;;;;5030971;28;19917;-77
2020/12/09 07:19:48;;;;;;;;;;;;;;;;;;5023577;28;19920;-76
2020/12/09 07:22:14;;;;;;;;;;;;;;;;;;5033522;28;19909;-76
2020/12/09 07:24:40;;;;;;;;;;;;;;;;;;5035900;28;19916;-76
2020/12/09 07:27:10;;;;;;;;;;;;;;;;;;5032755;28;19909;-77
2020/12/09 07:29:36;;;;;;;;;;;;;;;;;;5032863;28;19924;-76
2020/12/09 07:32:02;;;;;;;;;;;;;;;;;;5032649;28;19987;-77
2020/12/09 07:34:28;;;;;;;;;;;;;;;;;;5032160;28;20322;-76
2020/12/09 07:36:55;;;;;;;;;;;;;;;;;;5036972;28;19917;-76
2020/12/09 07:39:21;;;;;;;;;;;;;;;;;;5045933;28;19909;-76
2020/12/09 07:41:50;;;;;;;;;;;;;;;;;;5041221;28;19980;-76
2020/12/09 07:44:16;;;;;;;;;;;;;;;;;;5042467;28;19909;-76
2020/12/09 07:46:42;;;;;;;;;;;;;;;;;;5039128;28;20055;-76
2020/12/09 07:49:08;;;;;;;;;;;;;;;;;;5030775;28;19914;-77
2020/12/09 07:51:34;;;;;;;;;;;;;;;;;;5031600;28;19913;-77
2020/12/09 07:54:00;;;;;;;;;;;;;;;;;;5028951;28;19948;-77
2020/12/09 07:56:26;;;;;;;;;;;;;;;;;;5030858;28;19913;-77
2020/12/09 07:58:52;;;;;;;;;;;;;;;;;;5030757;28;19920;-77
2020/12/09 08:01:18;;;;;;;;;;;;;;;;;;5030779;28;19913;-77
2020/12/09 08:03:43;;;;;;;;;;;;;;;;;;5030833;28;19916;-77
2020/12/09 08:06:09;;;;;;;;;;;;;;;;;;5025601;28;20279;-76
2020/12/09 08:08:35;;;;;;;;;;;;;;;;;;5036803;28;19916;-76
2020/12/09 08:11:01;;;;;;;;;;;;;;;;;;5033396;28;19909;-76
2020/12/09 08:13:27;;;;;;;;;;;;;;;;;;5030549;28;19961;-77
2020/12/09 08:15:53;;;;;;;;;;;;;;;;;;5030378;28;20014;-76
2020/12/09 08:18:19;;;;;;;;;;;;;;;;;;5030094;28;19913;-77
2020/12/09 08:20:45;;;;;;;;;;;;;;;;;;5031443;28;19939;-77
2020/12/09 08:23:11;;;;;;;;;;;;;;;;;;5031156;28;19996;-77
2020/12/09 08:25:37;;;;;;;;;;;;;;;;;;5031340;28;20356;-77
2020/12/09 08:28:03;;;;;;;;;;;;;;;;;;5033081;28;20497;-77
2020/12/09 08:30:29;;;;;;;;;;;;;;;;;;5033329;28;19916;-76
2020/12/09 08:32:55;;;;;;;;;;;;;;;;;;5033426;28;19909;-77
2020/12/09 08:35:21;;;;;;;;;;;;;;;;;;5033854;28;20022;-76
2020/12/09 08:37:47;;;;;;;;;;;;;;;;;;5040201;28;20430;-76
2020/12/09 08:40:13;;;;;;;;;;;;;;;;;;5045305;28;19909;-77
2020/12/09 08:42:39;;;;;;;;;;;;;;;;;;5053198;28;19908;-76
2020/12/09 08:45:05;;;;;;;;;;;;;;;;;;5047295;28;20442;-76
2020/12/09 08:47:31;;;;;;;;;;;;;;;;;;5044447;28;19992;-76
2020/12/09 08:49:57;;;;;;;;;;;;;;;;;;5052917;28;19954;-76
2020/12/09 08:52:27;;;;;;;;;;;;;;;;;;5053148;28;19905;-77
2020/12/09 08:54:53;;;;;;;;;;;;;;;;;;5052954;28;19913;-77
2020/12/09 08:57:19;;;;;;;;;;;;;;;;;;5053058;28;20000;-76
2020/12/09 08:59:45;;;;;;;;;;;;;;;;;;5053038;28;20366;-76
2020/12/09 09:02:11;;;;;;;;;;;;;;;;;;5052499;28;19909;-76
2020/12/09 09:04:39;;;;;;;;;;;;;;;;;;5052828;28;19959;-76
2020/12/09 09:07:05;;;;;;;;;;;;;;;;;;5052782;28;19924;-77
2020/12/09 09:09:31;;;;;;;;;;;;;;;;;;5053205;28;19913;-75
2020/12/09 09:11:57;;;;;;;;;;;;;;;;;;5044079;28;19921;-77
2020/12/09 09:14:22;;;;;;;;;;;;;;;;;;5043955;28;20272;-77
2020/12/09 09:16:48;;;;;;;;;;;;;;;;;;5052293;28;20385;-77
2020/12/09 09:19:14;;;;;;;;;;;;;;;;;;5052366;28;20360;-77
2020/12/09 09:21:41;;;;;;;;;;;;;;;;;;5052644;28;19905;-77
2020/12/09 09:24:06;;;;;;;;;;;;;;;;;;5052445;28;19916;-76
2020/12/09 09:26:32;;;;;;;;;;;;;;;;;;5052875;28;19909;-76
2020/12/09 09:28:58;;;;;;;;;;;;;;;;;;5052412;28;19908;-76
2020/12/09 09:31:24;;;;;;;;;;;;;;;;;;5052037;28;19905;-76
2020/12/09 09:33:50;;;;;;;;;;;;;;;;;;5052197;28;20113;-76
2020/12/09 09:36:16;;;;;;;;;;;;;;;;;;5053716;28;19916;-76
2020/12/09 09:38:42;;;;;;;;;;;;;;;;;;5051425;28;19920;-77
2020/12/09 09:41:08;;;;;;;;;;;;;;;;;;5044427;28;19910;-77
2020/12/09 09:43:34;;;;;;;;;;;;;;;;;;5053023;28;20329;-77
2020/12/09 09:46:00;;;;;;;;;;;;;;;;;;5052384;28;19912;-76
2020/12/09 09:48:26;;;;;;;;;;;;;;;;;;5052615;28;19909;-76
2020/12/09 09:50:52;;;;;;;;;;;;;;;;;;5053076;28;20255;-77
2020/12/09 09:53:18;;;;;;;;;;;;;;;;;;5052041;28;19909;-76
2020/12/09 09:55:44;;;;;;;;;;;;;;;;;;5052048;28;20418;-76
2020/12/09 09:58:10;;;;;;;;;;;;;;;;;;5051761;28;19909;-76
2020/12/09 10:00:36;;;;;;;;;;;;;;;;;;5052172;28;19938;-76
2020/12/09 10:03:02;;;;;;;;;;;;;;;;;;5052116;28;19909;-76
2020/12/09 10:05:28;;;;;;;;;;;;;;;;;;5052028;28;19909;-76
2020/12/09 10:07:54;;;;;;;;;;;;;;;;;;5051831;28;19917;-75
2020/12/09 10:10:20;;;;;;;;;;;;;;;;;;5049519;28;19908;-76
2020/12/09 10:12:46;;;;;;;;;;;;;;;;;;5040933;28;19952;-76
2020/12/09 10:15:12;;;;;;;;;;;;;;;;;;5043148;28;19952;-76
2020/12/09 10:17:37;;;;;;;;;;;;;;;;;;5052309;28;20275;-76
2020/12/09 10:20:03;;;;;;;;;;;;;;;;;;5052059;28;20326;-76
2020/12/09 10:22:29;;;;;;;;;;;;;;;;;;5053178;28;20286;-76
2020/12/09 10:24:56;;;;;;;;;;;;;;;;;;5047114;28;19967;-76
2020/12/09 10:27:22;;;;;;;;;;;;;;;;;;5026006;28;19914;-75
2020/12/09 10:29:47;;;;;;;;;;;;;;;;;;5013615;28;19987;-77
2020/12/09 10:32:13;;;;;;;;;;;;;;;;;;5011362;28;19960;-75
2020/12/09 10:34:40;;;;;;;;;;;;;;;;;;5011306;28;20264;-78
2020/12/09 10:37:06;;;;;;;;;;;;;;;;;;5011481;28;20186;-76
2020/12/09 10:39:32;;;;;;;;;;;;;;;;;;5011795;28;19949;-76
2020/12/09 10:41:58;;;;;;;;;;;;;;;;;;5017427;28;19956;-75
2020/12/09 10:44:24;;;;;;;;;;;;;;;;;;5041880;28;19915;-75
2020/12/09 10:46:50;;;;;;;;;;;;;;;;;;5045055;28;19944;-74
2020/12/09 10:49:16;;;;;;;;;;;;;;;;;;5042398;28;19940;-74
2020/12/09 10:51:42;;;;;;;;;;;;;;;;;;5050591;28;19994;-76
2020/12/09 10:54:08;;;;;;;;;;;;;;;;;;5050767;28;19915;-75
2020/12/09 10:56:34;;;;;;;;;;;;;;;;;;5046508;28;20030;-76
2020/12/09 10:59:00;;;;;;;;;;;;;;;;;;5030040;28;20299;-76
2020/12/09 11:01:26;;;;;;;;;;;;;;;;;;5031181;28;19979;-76
2020/12/09 11:03:52;;;;;;;;;;;;;;;;;;5032468;28;19909;-77
2020/12/09 11:06:18;;;;;;;;;;;;;;;;;;5030432;28;19952;-76
2020/12/09 11:08:44;;;;;;;;;;;;;;;;;;5030157;28;19909;-75
2020/12/09 11:11:09;;;;;;;;;;;;;;;;;;5030160;28;19967;-75
2020/12/09 11:13:35;;;;;;;;;;;;;;;;;;5023219;28;20363;-76
2020/12/09 11:16:01;;;;;;;;;;;;;;;;;;5028935;28;19971;-76
2020/12/09 11:18:27;;;;;;;;;;;;;;;;;;5026976;28;19916;-76
2020/12/09 11:20:53;;;;;;;;;;;;;;;;;;5016616;28;19909;-76
2020/12/09 11:23:19;;;;;;;;;;;;;;;;;;5040492;28;19917;-75
2020/12/09 11:25:45;;;;;;;;;;;;;;;;;;5050131;28;19974;-75
2020/12/09 11:28:11;;;;;;;;;;;;;;;;;;5050629;28;20378;-76
2020/12/09 11:30:37;;;;;;;;;;;;;;;;;;5050336;28;20283;-75
2020/12/09 11:33:03;;;;;;;;;;;;;;;;;;5050163;28;20363;-76
2020/12/09 11:35:29;;;;;;;;;;;;;;;;;;5049823;28;19919;-76
2020/12/09 11:37:56;;;;;;;;;;;;;;;;;;5047516;28;19999;-76
2020/12/09 11:40:25;;;;;;;;;;;;;;;;;;5050135;28;19913;-76
2020/12/09 11:42:51;;;;;;;;;;;;;;;;;;5053880;28;19999;-76
2020/12/09 11:45:17;;;;;;;;;;;;;;;;;;5050125;28;19999;-76
2020/12/09 11:47:43;;;;;;;;;;;;;;;;;;5050092;28;19913;-76
2020/12/09 11:50:09;;;;;;;;;;;;;;;;;;5050448;28;20293;-76
2020/12/09 11:52:35;;;;;;;;;;;;;;;;;;5050687;28;20367;-76
2020/12/09 11:55:01;;;;;;;;;;;;;;;;;;5054854;28;19909;-75
2020/12/09 11:57:27;;;;;;;;;;;;;;;;;;5056213;28;19979;-76
2020/12/09 11:59:53;;;;;;;;;;;;;;;;;;5059213;28;19916;-76
2020/12/09 12:02:18;;;;;;;;;;;;;;;;;;5057238;28;20311;-76
2020/12/09 12:04:44;;;;;;;;;;;;;;;;;;5054249;28;20469;-76
2020/12/09 12:07:10;;;;;;;;;;;;;;;;;;5042794;28;20375;-77
2020/12/09 12:09:36;;;;;;;;;;;;;;;;;;5047761;28;19967;-77
2020/12/09 12:12:02;;;;;;;;;;;;;;;;;;5055273;28;19925;-77
2020/12/09 12:14:28;;;;;;;;;;;;;;;;;;5053987;28;19909;-77
2020/12/09 12:16:54;;;;;;;;;;;;;;;;;;5053672;28;19955;-76
2020/12/09 12:19:20;;;;;;;;;;;;;;;;;;5053304;28;19999;-77
2020/12/09 12:21:46;;;;;;;;;;;;;;;;;;5053488;28;19919;-77
2020/12/09 12:24:12;;;;;;;;;;;;;;;;;;5042505;28;19960;-77
2020/12/09 12:26:38;;;;;;;;;;;;;;;;;;5033302;28;19913;-77
2020/12/09 12:29:04;;;;;;;;;;;;;;;;;;5018633;28;19956;-77
2020/12/09 12:31:33;;;;;;;;;;;;;;;;;;5013556;28;19914;-77
2020/12/09 12:33:59;;;;;;;;;;;;;;;;;;5016229;28;19944;-77
2020/12/09 12:36:25;;;;;;;;;;;;;;;;;;5020905;28;20014;-77
2020/12/09 12:38:51;;;;;;;;;;;;;;;;;;5039984;28;19931;-77
2020/12/09 12:41:17;;;;;;;;;;;;;;;;;;5053246;28;19920;-77
2020/12/09 12:43:43;;;;;;;;;;;;;;;;;;5045081;28;20429;-77
2020/12/09 12:46:09;;;;;;;;;;;;;;;;;;5034587;28;20514;-76
2020/12/09 12:48:35;;;;;;;;;;;;;;;;;;5037156;28;19953;-77
2020/12/09 12:51:00;;;;;;;;;;;;;;;;;;5036079;28;19916;-77
2020/12/09 12:53:26;;;;;;;;;;;;;;;;;;5034248;28;19913;-77
2020/12/09 12:55:52;;;;;;;;;;;;;;;;;;5033179;28;19951;-76
2020/12/09 12:58:18;;;;;;;;;;;;;;;;;;5032536;28;19910;-76
2020/12/09 13:00:44;;;;;;;;;;;;;;;;;;5032767;28;19963;-76
2020/12/09 13:03:10;;;;;;;;;;;;;;;;;;5032867;28;19916;-76
2020/12/09 13:05:36;;;;;;;;;;;;;;;;;;5032901;28;19910;-77
2020/12/09 13:08:02;;;;;;;;;;;;;;;;;;5040854;28;19913;-77
2020/12/09 13:10:28;;;;;;;;;;;;;;;;;;5052685;28;19963;-77
2020/12/09 13:12:54;;;;;;;;;;;;;;;;;;5052513;28;20001;-76
2020/12/09 13:15:20;;;;;;;;;;;;;;;;;;5052116;28;19915;-77
2020/12/09 13:17:46;;;;;;;;;;;;;;;;;;5032424;28;19913;-78
2020/12/09 13:20:12;;;;;;;;;;;;;;;;;;5034793;28;19963;-78
2020/12/09 13:22:38;;;;;;;;;;;;;;;;;;5034641;28;19921;-77
2020/12/09 13:25:04;;;;;;;;;;;;;;;;;;5035108;28;19910;-77
2020/12/09 13:27:30;;;;;;;;;;;;;;;;;;5034709;28;19920;-77
2020/12/09 13:29:56;;;;;;;;;;;;;;;;;;5033782;28;19956;-77
2020/12/09 13:32:22;;;;;;;;;;;;;;;;;;5033597;28;19917;-77
2020/12/09 13:34:48;;;;;;;;;;;;;;;;;;5035488;28;20481;-76
2020/12/09 13:37:14;;;;;;;;;;;;;;;;;;5036051;28;19921;-77
2020/12/09 13:39:40;;;;;;;;;;;;;;;;;;5040051;28;19920;-78
2020/12/09 13:42:06;;;;;;;;;;;;;;;;;;5040331;28;19910;-78
2020/12/09 13:44:31;;;;;;;;;;;;;;;;;;5032230;28;19921;-77
2020/12/09 13:46:57;;;;;;;;;;;;;;;;;;5032148;28;19915;-78
2020/12/09 13:49:24;;;;;;;;;;;;;;;;;;5030978;28;20394;-77
2020/12/09 13:51:49;;;;;;;;;;;;;;;;;;5032089;28;19909;-78
2020/12/09 13:54:15;;;;;;;;;;;;;;;;;;5031770;28;20020;-77
2020/12/09 13:56:41;;;;;;;;;;;;;;;;;;5033450;28;20144;-77
2020/12/09 13:59:07;;;;;;;;;;;;;;;;;;5031792;28;19913;-77
2020/12/09 14:01:33;;;;;;;;;;;;;;;;;;5031611;28;19912;-78
2020/12/09 14:04:00;;;;;;;;;;;;;;;;;;5031541;28;20061;-77
2020/12/09 14:06:29;;;;;;;;;;;;;;;;;;5031440;28;20390;-77
2020/12/09 14:08:55;;;;;;;;;;;;;;;;;;5031433;28;19915;-77
2020/12/09 14:11:21;;;;;;;;;;;;;;;;;;5047407;28;19913;-77
2020/12/09 14:13:47;;;;;;;;;;;;;;;;;;5031237;28;19944;-77
2020/12/09 14:16:12;;;;;;;;;;;;;;;;;;5035191;28;19964;-77
2020/12/09 14:18:40;;;;;;;;;;;;;;;;;;5044946;28;20283;-77
2020/12/09 14:21:06;;;;;;;;;;;;;;;;;;5051050;28;19909;-77
2020/12/09 14:23:32;;;;;;;;;;;;;;;;;;5052434;28;19987;-77
2020/12/09 14:25:58;;;;;;;;;;;;;;;;;;5050969;28;19979;-77
2020/12/09 14:28:24;;;;;;;;;;;;;;;;;;5044263;28;19909;-77
2020/12/09 14:30:50;;;;;;;;;;;;;;;;;;5031014;28;19911;-77
2020/12/09 14:33:16;;;;;;;;;;;;;;;;;;5031409;28;19949;-77
2020/12/09 14:35:42;;;;;;;;;;;;;;;;;;5031256;28;19917;-77
2020/12/09 14:38:08;;;;;;;;;;;;;;;;;;5030934;28;20451;-77
2020/12/09 14:40:34;;;;;;;;;;;;;;;;;;5034983;28;19995;-77
2020/12/09 14:43:00;;;;;;;;;;;;;;;;;;5042955;28;19952;-77
2020/12/09 14:45:26;;;;;;;;;;;;;;;;;;5051616;28;20003;-76
2020/12/09 14:47:52;;;;;;;;;;;;;;;;;;5050850;28;19909;-76
2020/12/09 14:50:18;;;;;;;;;;;;;;;;;;5050620;28;19958;-76
2020/12/09 14:52:44;;;;;;;;;;;;;;;;;;5050519;28;19909;-76
2020/12/09 14:55:11;;;;;;;;;;;;;;;;;;5050480;28;20394;-76
2020/12/09 14:57:36;;;;;;;;;;;;;;;;;;5034287;28;20352;-76
2020/12/09 15:00:02;;;;;;;;;;;;;;;;;;5038083;28;19909;-76
2020/12/09 15:02:30;;;;;;;;;;;;;;;;;;5042495;28;19982;-76
2020/12/09 15:04:56;;;;;;;;;;;;;;;;;;5050523;28;19908;-76
2020/12/09 15:07:22;;;;;;;;;;;;;;;;;;5028104;28;19956;-78
2020/12/09 15:09:48;;;;;;;;;;;;;;;;;;5038019;28;19939;-78
2020/12/09 15:12:13;;;;;;;;;;;;;;;;;;5033746;28;19917;-78
2020/12/09 15:14:40;;;;;;;;;;;;;;;;;;5031175;28;19945;-78
2020/12/09 15:17:06;;;;;;;;;;;;;;;;;;5029613;28;19913;-78
2020/12/09 15:19:32;;;;;;;;;;;;;;;;;;5030572;28;19914;-78
2020/12/09 15:21:58;;;;;;;;;;;;;;;;;;5031602;28;19916;-78
2020/12/09 15:24:23;;;;;;;;;;;;;;;;;;5030042;28;19932;-76
2020/12/09 15:26:49;;;;;;;;;;;;;;;;;;5029898;28;19936;-76
2020/12/09 15:29:15;;;;;;;;;;;;;;;;;;5014046;28;20391;-76
2020/12/09 15:31:42;;;;;;;;;;;;;;;;;;5023070;28;20104;-77
2020/12/09 15:34:08;;;;;;;;;;;;;;;;;;5016426;28;20280;-76
2020/12/09 15:36:34;;;;;;;;;;;;;;;;;;5029520;28;19920;-77
2020/12/09 15:39:00;;;;;;;;;;;;;;;;;;5033116;28;19909;-76
2020/12/09 15:41:28;;;;;;;;;;;;;;;;;;5033278;28;19980;-76
2020/12/09 15:43:54;;;;;;;;;;;;;;;;;;5033598;28;20402;-76
2020/12/09 15:46:20;;;;;;;;;;;;;;;;;;5034131;28;19952;-76
2020/12/09 15:48:46;;;;;;;;;;;;;;;;;;5035514;28;19913;-76
2020/12/09 15:51:12;;;;;;;;;;;;;;;;;;5034419;28;20020;-76
2020/12/09 15:53:37;;;;;;;;;;;;;;;;;;5033528;28;20375;-77
2020/12/09 15:56:04;;;;;;;;;;;;;;;;;;5033505;28;19978;-76
2020/12/09 15:58:30;;;;;;;;;;;;;;;;;;5033778;28;20276;-76
2020/12/09 16:00:56;;;;;;;;;;;;;;;;;;5034031;28;19916;-76
2020/12/09 16:03:22;;;;;;;;;;;;;;;;;;5032067;28;19913;-76
2020/12/09 16:05:48;;;;;;;;;;;;;;;;;;5031918;28;19962;-75
2020/12/09 16:08:14;;;;;;;;;;;;;;;;;;5034311;28;19913;-75
2020/12/09 16:10:41;;;;;;;;;;;;;;;;;;5035119;28;19935;-78
2020/12/09 16:13:08;;;;;;;;;;;;;;;;;;5038268;28;20054;-78
2020/12/09 16:15:34;;;;;;;;;;;;;;;;;;5033752;28;19913;-77
2020/12/09 16:18:00;;;;;;;;;;;;;;;;;;5017019;28;20003;-77
2020/12/09 16:20:26;;;;;;;;;;;;;;;;;;5033880;28;19909;-78
2020/12/09 16:22:52;;;;;;;;;;;;;;;;;;5021322;28;19955;-78
2020/12/09 16:25:18;;;;;;;;;;;;;;;;;;5029630;28;19910;-78
2020/12/09 16:27:44;;;;;;;;;;;;;;;;;;5018055;28;19936;-77
2020/12/09 16:30:10;;;;;;;;;;;;;;;;;;5034013;28;19917;-78
2020/12/09 16:32:36;;;;;;;;;;;;;;;;;;5034602;28;19924;-76
2020/12/09 16:35:02;;;;;;;;;;;;;;;;;;5034025;28;20417;-76
2020/12/09 16:37:28;;;;;;;;;;;;;;;;;;5034158;28;20371;-78
2020/12/09 16:39:54;;;;;;;;;;;;;;;;;;5033547;28;19913;-77